Kipling, OH (43750)

6:15 AM EDT on July 14, 2014 (GMT -0400)
Downtown Cambridge (KOHCAMBR5) Elev 876 ft | 40.03 °N, 81.59 °W | Change Station

Current weather conditions updated 5 seconds ago

Overcast
Overcast
71.0 °F
Feels Like 71.0 °F
N
0.0
Wind Variable Wind from SSE
Gusts 3.0 mph

Today is forecast to be Cooler than yesterday. Afternoon showers and thunderstorms.

Today
High -- | Low -- °F
--% Chance of Precip.
Yesterday
High -- | Low -- °F
Precip. -- in
6:09 AM 8:54 PM
Waning Gibbous, 94% visible
Pressure 29.90 in
Visibility 3.0 miles
Clouds Overcast 300 ft
Dew Point 69 °F
Humidity 95%
Rainfall 0.00 in
Snow Depth Not available.
UV 0 out of 12
Pollen .50 out of 12
Air Quality Not available.
Flu Activity Sporadic
METAR KZZV 140953Z AUTO 19005KT 3SM BR OVC003 22/21 A2992 RMK AO2 SLP123 T02170206

More Conditions Fewer Conditions

Pressure 29.90 in
Visibility 3.0 miles
Clouds Overcast 300 ft
Dew Point 69 °F
Humidity 95%
Rainfall 0.00 in
Snow Depth Not available.
UV 0 out of 12
Pollen .50 out of 12
Air Quality Not available.
Flu Activity Sporadic
METAR KZZV 140953Z AUTO 19005KT 3SM BR OVC003 22/21 A2992 RMK AO2 SLP123 T02170206

More Conditions Fewer Conditions

10-Day Weather Forecast

Almanac

Astronomy

Jul. 14, 2014 Rise Set
Actual Time 6:09 AM EDT 8:54 PM EDT
Civil Twilight 5:37 AM EDT 9:26 PM EDT
Nautical Twilight 4:57 AM EDT 10:06 PM EDT
Astronomical Twilight 4:11 AM EDT 10:52 PM EDT
Moon 10:23 PM EDT 8:50 AM EDT
Length of Visible Light 15h 49m
Length of Day
14h 45m
Tomorrow will be 1m 19s shorter.
Waning Gibbous, 94% of the Moon is Illuminated
Today
Waning Gibbous
Jul 18
Last Quarter
Jul 26
New
Aug 3
First Quarter
Aug 10
Full

Today's Extremes

State Highs State Lows

Community

WunderPhotos

Upload Photos

1,733,593 photos uploaded!

Nearby

Snow Depth

Station Depth Elevation
No new snow has been reported.

Earthquake Activity

City Distance Mag. Time & Date
No recent earthquake activity has been reported nearby.
Minimum magnitude displayed is 2.5.

Coastal Water Temperatures

Place Temperature
No Stations Reporting

Nearby Weather Stations

Station Location Temp. Dew Point Humidity Wind Precip. Elev Updated Type
Downtown Cambridge, Cambridge, OH 71.0 °F 69 °F 95% SSE  at  0.0 mph 0.00 in / hr 876 ft 6:15 AM EDT Rapid Fire
Heller Drive, Newcomerstown, OH 72.0 °F 70 °F 94% West  at  0.0 mph 0.00 in / hr 792 ft 6:15 AM EDT Rapid Fire
Falls Twp, North Zanesville, OH 71.3 °F 71 °F 100% SE  at  0.0 mph 0.00 in / hr 800 ft 6:15 AM EDT Rapid Fire
OHDOT 11-Coshocton County Garage, Coshocton, OH 69 °F 69 °F 99% SSW  at  2 mph 0.00 in / hr 762 ft 4:11 AM EDT MADIS

Show More Stations Show Fewer Stations